Time,TemperatureF,DewpointF,PressureIn,WindDirection,WindDirectionDegrees,WindSpeedMPH,WindSpeedGustMPH,Humidity,HourlyPrecipIn,Conditions,Clouds,dailyrainin,SoftwareType,DateUTC
2013-06-19 00:10:00,72.8,71.0,29.92,North,354,0.0,-999.0,94,-99.99,,,0.00,weatherlink.com 1.10,2013-06-19 05:10:00,
2013-06-19 00:25:00,72.8,71.0,29.92,North,354,0.0,-999.0,95,-99.99,,,0.00,weatherlink.com 1.10,2013-06-19 05:25:00,
2013-06-19 00:40:00,72.8,71.0,29.92,North,354,0.0,-999.0,95,-99.99,,,0.00,weatherlink.com 1.10,2013-06-19 05:40:00,
2013-06-19 00:55:00,72.7,71.0,29.91,North,354,0.0,-999.0,95,-99.99,,,0.00,weatherlink.com 1.10,2013-06-19 05:55:00,
2013-06-19 01:10:00,72.7,71.0,29.90,North,354,0.0,-999.0,95,-99.99,,,0.00,weatherlink.com 1.10,2013-06-19 06:10:00,
2013-06-19 01:25:00,72.7,71.0,29.90,North,354,0.0,-999.0,95,-99.99,,,0.00,weatherlink.com 1.10,2013-06-19 06:25:00,
2013-06-19 01:40:00,72.7,71.0,29.90,North,354,0.0,-999.0,95,-99.99,,,0.00,weatherlink.com 1.10,2013-06-19 06:40:00,
2013-06-19 01:55:00,72.7,71.0,29.91,North,354,0.0,-999.0,95,-99.99,,,0.00,weatherlink.com 1.10,2013-06-19 06:55:00,
2013-06-19 02:10:00,72.5,71.0,29.91,North,354,0.0,-999.0,95,-99.99,,,0.00,weatherlink.com 1.10,2013-06-19 07:10:00,
2013-06-19 02:25:00,72.5,71.0,29.91,North,354,0.0,-999.0,95,-99.99,,,0.00,weatherlink.com 1.10,2013-06-19 07:25:00,
2013-06-19 02:40:00,72.3,71.0,29.91,North,354,0.0,-999.0,95,-99.99,,,0.00,weatherlink.com 1.10,2013-06-19 07:40:00,
2013-06-19 02:55:00,72.3,71.0,29.91,North,354,0.0,-999.0,95,-99.99,,,0.00,weatherlink.com 1.10,2013-06-19 07:55:00,
2013-06-19 03:10:00,72.3,71.0,29.91,North,354,0.0,-999.0,95,-99.99,,,0.00,weatherlink.com 1.10,2013-06-19 08:10:00,
2013-06-19 03:25:00,72.1,71.0,29.91,North,354,0.0,-999.0,95,-99.99,,,0.00,weatherlink.com 1.10,2013-06-19 08:25:00,
2013-06-19 03:40:00,72.1,71.0,29.91,North,354,0.0,-999.0,95,-99.99,,,0.00,weatherlink.com 1.10,2013-06-19 08:40:00,
2013-06-19 03:55:00,72.0,71.0,29.90,North,354,0.0,-999.0,95,-99.99,,,0.00,weatherlink.com 1.10,2013-06-19 08:55:00,
2013-06-19 04:10:00,72.0,71.0,29.90,North,354,0.0,-999.0,95,-99.99,,,0.00,weatherlink.com 1.10,2013-06-19 09:10:00,
2013-06-19 04:25:00,71.8,70.0,29.90,North,354,0.0,-999.0,95,-99.99,,,0.00,weatherlink.com 1.10,2013-06-19 09:25:00,
2013-06-19 04:40:00,71.8,70.0,29.90,North,354,0.0,-999.0,95,-99.99,,,0.00,weatherlink.com 1.10,2013-06-19 09:40:00,
2013-06-19 04:55:00,71.6,70.0,29.91,North,354,0.0,-999.0,95,-99.99,,,0.00,weatherlink.com 1.10,2013-06-19 09:55:00,
2013-06-19 05:10:00,71.5,70.0,29.91,North,354,0.0,-999.0,95,-99.99,,,0.00,weatherlink.com 1.10,2013-06-19 10:10:00,
2013-06-19 05:26:00,71.1,70.0,29.92,North,354,0.0,-999.0,95,-99.99,,,0.00,weatherlink.com 1.10,2013-06-19 10:26:00,
2013-06-19 05:40:00,70.9,70.0,29.92,North,354,0.0,-999.0,95,-99.99,,,0.00,weatherlink.com 1.10,2013-06-19 10:40:00,
2013-06-19 05:56:00,70.6,69.0,29.92,North,354,0.0,-999.0,95,-99.99,,,0.00,weatherlink.com 1.10,2013-06-19 10:56:00,
2013-06-19 06:11:00,70.6,69.0,29.93,North,354,0.0,-999.0,95,-99.99,,,0.00,weatherlink.com 1.10,2013-06-19 11:11:00,
2013-06-19 06:26:00,70.6,69.0,29.93,North,354,0.0,-999.0,95,-99.99,,,0.00,weatherlink.com 1.10,2013-06-19 11:26:00,
2013-06-19 06:41:00,70.8,69.0,29.93,North,354,0.0,-999.0,95,-99.99,,,0.00,weatherlink.com 1.10,2013-06-19 11:41:00,
2013-06-19 06:56:00,71.1,70.0,29.94,North,354,0.0,-999.0,95,-99.99,,,0.00,weatherlink.com 1.10,2013-06-19 11:56:00,
2013-06-19 07:11:00,71.6,70.0,29.95,North,354,0.0,-999.0,95,-99.99,,,0.00,weatherlink.com 1.10,2013-06-19 12:11:00,
2013-06-19 07:26:00,72.3,71.0,29.95,North,359,0.0,-999.0,95,-99.99,,,0.00,weatherlink.com 1.10,2013-06-19 12:26:00,
2013-06-19 07:41:00,73.0,72.0,29.96,North,359,0.0,-999.0,95,-99.99,,,0.00,weatherlink.com 1.10,2013-06-19 12:41:00,
2013-06-19 07:56:00,73.3,72.0,29.96,North,359,0.0,-999.0,95,-99.99,,,0.00,weatherlink.com 1.10,2013-06-19 12:56:00,
2013-06-19 08:11:00,73.9,72.0,29.96,North,359,0.0,-999.0,95,-99.99,,,0.00,weatherlink.com 1.10,2013-06-19 13:11:00,
2013-06-19 08:26:00,74.7,73.0,29.96,North,359,0.0,-999.0,95,-99.99,,,0.00,weatherlink.com 1.10,2013-06-19 13:26:00,
2013-06-19 08:41:00,75.1,73.0,29.96,North,359,0.0,-999.0,93,-99.99,,,0.00,weatherlink.com 1.10,2013-06-19 13:41:00,
2013-06-19 08:56:00,74.9,73.0,29.96,North,359,0.0,-999.0,92,-99.99,,,0.00,weatherlink.com 1.10,2013-06-19 13:56:00,
2013-06-19 09:11:00,74.9,73.0,29.96,North,359,0.0,-999.0,92,-99.99,,,0.00,weatherlink.com 1.10,2013-06-19 14:11:00,
2013-06-19 09:26:00,75.3,73.0,29.96,North,359,0.0,-999.0,91,-99.99,,,0.00,weatherlink.com 1.10,2013-06-19 14:26:00,
2013-06-19 09:41:00,76.5,72.0,29.96,North,359,0.0,-999.0,87,-99.99,,,0.00,weatherlink.com 1.10,2013-06-19 14:41:00,
2013-06-19 09:56:00,76.8,72.0,29.97,North,359,0.0,-999.0,85,-99.99,,,0.00,weatherlink.com 1.10,2013-06-19 14:56:00,
2013-06-19 10:11:00,78.1,73.0,29.96,North,359,0.0,-999.0,85,-99.99,,,0.00,weatherlink.com 1.10,2013-06-19 15:11:00,
2013-06-19 10:26:00,79.0,73.0,29.96,North,359,0.0,-999.0,81,-99.99,,,0.00,weatherlink.com 1.10,2013-06-19 15:26:00,
2013-06-19 10:41:00,79.9,73.0,29.96,North,0,0.0,-999.0,79,-99.99,,,0.00,weatherlink.com 1.10,2013-06-19 15:41:00,
2013-06-19 10:56:00,79.9,74.0,29.97,North,0,0.0,-999.0,81,-99.99,,,0.00,weatherlink.com 1.10,2013-06-19 15:56:00,
2013-06-19 11:11:00,81.2,74.0,29.97,NNW,332,1.0,-999.0,78,-99.99,,,0.00,weatherlink.com 1.10,2013-06-19 16:11:00,
2013-06-19 11:26:00,81.4,74.0,29.97,NNW,332,0.0,-999.0,78,-99.99,,,0.00,weatherlink.com 1.10,2013-06-19 16:26:00,
2013-06-19 11:41:00,82.0,74.0,29.96,NNW,332,1.0,-999.0,77,-99.99,,,0.00,weatherlink.com 1.10,2013-06-19 16:41:00,
2013-06-19 11:56:00,80.9,73.0,29.96,West,271,0.0,-999.0,78,-99.99,,,0.00,weatherlink.com 1.10,2013-06-19 16:56:00,
2013-06-19 12:11:00,80.9,73.0,29.96,South,191,0.0,-999.0,78,-99.99,,,0.00,weatherlink.com 1.10,2013-06-19 17:11:00,
2013-06-19 12:26:00,80.3,74.0,29.96,WSW,254,0.0,-999.0,82,-99.99,,,0.00,weatherlink.com 1.10,2013-06-19 17:26:00,
2013-06-19 12:41:00,82.2,74.0,29.95,WSW,254,0.0,-999.0,76,-99.99,,,0.00,weatherlink.com 1.10,2013-06-19 17:41:00,
2013-06-19 12:56:00,81.6,74.0,29.95,WSW,257,0.0,-999.0,78,-99.99,,,0.00,weatherlink.com 1.10,2013-06-19 17:56:00,
2013-06-19 13:11:00,83.6,75.0,29.95,North,1,0.0,-999.0,74,-99.99,,,0.00,weatherlink.com 1.10,2013-06-19 18:11:00,
2013-06-19 13:26:00,82.4,75.0,29.95,NNW,346,0.0,-999.0,77,-99.99,,,0.00,weatherlink.com 1.10,2013-06-19 18:26:00,
2013-06-19 13:41:00,82.6,76.0,29.94,SSE,167,1.0,-999.0,80,-99.99,,,0.00,weatherlink.com 1.10,2013-06-19 18:41:00,
2013-06-19 13:56:00,82.4,75.0,29.93,NW,320,1.0,-999.0,77,-99.99,,,0.00,weatherlink.com 1.10,2013-06-19 18:56:00,
2013-06-19 14:11:00,84.1,75.0,29.93,North,352,3.0,-999.0,74,-99.99,,,0.00,weatherlink.com 1.10,2013-06-19 19:11:00,
2013-06-19 14:26:00,84.5,75.0,29.92,NNE,28,1.0,-999.0,72,-99.99,,,0.00,weatherlink.com 1.10,2013-06-19 19:26:00,
2013-06-19 14:41:00,84.3,76.0,29.92,NNW,344,0.0,-999.0,76,-99.99,,,0.00,weatherlink.com 1.10,2013-06-19 19:41:00,
2013-06-19 14:56:00,84.9,75.0,29.92,North,357,1.0,-999.0,73,-99.99,,,0.00,weatherlink.com 1.10,2013-06-19 19:56:00,
2013-06-19 15:11:00,84.1,74.0,29.93,ENE,69,2.0,-999.0,71,-99.99,,,0.00,weatherlink.com 1.10,2013-06-19 20:11:00,
2013-06-19 15:26:00,81.6,74.0,29.93,ENE,66,1.0,-999.0,77,-99.99,,,0.00,weatherlink.com 1.10,2013-06-19 20:26:00,
2013-06-19 15:41:00,79.8,73.0,29.94,SSE,155,6.0,-999.0,79,-99.99,,,0.00,weatherlink.com 1.10,2013-06-19 20:41:00,
2013-06-19 15:56:00,78.5,72.0,29.94,South,176,2.0,-999.0,81,-99.99,,,0.00,weatherlink.com 1.10,2013-06-19 20:56:00,
2013-06-19 16:11:00,79.0,72.0,29.94,SSE,147,0.0,-999.0,80,-99.99,,,0.01,weatherlink.com 1.10,2013-06-19 21:11:00,
2013-06-19 16:26:00,77.4,73.0,29.93,SSE,157,1.0,-999.0,87,-99.99,,,0.14,weatherlink.com 1.10,2013-06-19 21:26:00,
2013-06-19 16:41:00,77.2,74.0,29.93,SW,220,0.0,-999.0,89,-99.99,,,0.16,weatherlink.com 1.10,2013-06-19 21:41:00,
2013-06-19 16:56:00,76.5,73.0,29.94,SW,232,0.0,-999.0,89,-99.99,,,0.16,weatherlink.com 1.10,2013-06-19 21:56:00,
2013-06-19 17:11:00,76.5,73.0,29.93,South,185,0.0,-999.0,89,-99.99,,,0.16,weatherlink.com 1.10,2013-06-19 22:11:00,
2013-06-19 17:26:00,76.5,73.0,29.94,South,185,0.0,-999.0,89,-99.99,,,0.16,weatherlink.com 1.10,2013-06-19 22:26:00,
2013-06-19 17:41:00,76.5,73.0,29.93,South,185,0.0,-999.0,89,-99.99,,,0.16,weatherlink.com 1.10,2013-06-19 22:41:00,
2013-06-19 17:56:00,76.3,73.0,29.92,SSW,212,0.0,-999.0,88,-99.99,,,0.16,weatherlink.com 1.10,2013-06-19 22:56:00,
2013-06-19 18:11:00,76.8,73.0,29.92,SSW,213,0.0,-999.0,87,-99.99,,,0.16,weatherlink.com 1.10,2013-06-19 23:11:00,
2013-06-19 18:26:00,78.6,73.0,29.91,SSW,213,0.0,-999.0,84,-99.99,,,0.16,weatherlink.com 1.10,2013-06-19 23:26:00,
2013-06-19 18:41:00,78.5,73.0,29.90,SW,215,1.0,-999.0,83,-99.99,,,0.16,weatherlink.com 1.10,2013-06-19 23:41:00,
2013-06-19 18:56:00,78.3,73.0,29.90,SW,215,0.0,-999.0,84,-99.99,,,0.16,weatherlink.com 1.10,2013-06-19 23:56:00,
2013-06-19 19:11:00,78.3,73.0,29.90,SW,215,0.0,-999.0,84,-99.99,,,0.16,weatherlink.com 1.10,2013-06-20 00:11:00,
2013-06-19 19:26:00,78.5,73.0,29.91,SW,215,1.0,-999.0,84,-99.99,,,0.16,weatherlink.com 1.10,2013-06-20 00:26:00,
2013-06-19 19:41:00,78.5,74.0,29.91,SW,215,0.0,-999.0,85,-99.99,,,0.16,weatherlink.com 1.10,2013-06-20 00:41:00,
2013-06-19 19:56:00,78.1,73.0,29.92,SW,215,0.0,-999.0,85,-99.99,,,0.16,weatherlink.com 1.10,2013-06-20 00:56:00,
2013-06-19 20:11:00,77.9,73.0,29.92,SW,215,0.0,-999.0,85,-99.99,,,0.16,weatherlink.com 1.10,2013-06-20 01:11:00,
2013-06-19 20:27:00,77.4,73.0,29.92,SW,215,0.0,-999.0,85,-99.99,,,0.16,weatherlink.com 1.10,2013-06-20 01:27:00,
2013-06-19 20:41:00,76.8,72.0,29.93,SW,215,0.0,-999.0,85,-99.99,,,0.16,weatherlink.com 1.10,2013-06-20 01:41:00,
2013-06-19 20:56:00,76.5,72.0,29.94,SW,215,0.0,-999.0,85,-99.99,,,0.16,weatherlink.com 1.10,2013-06-20 01:56:00,
2013-06-19 21:11:00,76.0,71.0,29.94,SW,215,0.0,-999.0,85,-99.99,,,0.16,weatherlink.com 1.10,2013-06-20 02:11:00,
2013-06-19 21:26:00,75.6,71.0,29.94,SW,215,0.0,-999.0,86,-99.99,,,0.16,weatherlink.com 1.10,2013-06-20 02:26:00,
2013-06-19 21:41:00,75.3,71.0,29.94,SW,215,0.0,-999.0,86,-99.99,,,0.16,weatherlink.com 1.10,2013-06-20 02:41:00,
2013-06-19 21:56:00,75.1,71.0,29.95,SW,215,0.0,-999.0,86,-99.99,,,0.16,weatherlink.com 1.10,2013-06-20 02:56:00,
2013-06-19 22:10:00,74.9,71.0,29.96,SW,215,0.0,-999.0,87,-99.99,,,0.16,weatherlink.com 1.10,2013-06-20 03:10:00,
2013-06-19 22:26:00,74.9,71.0,29.95,SW,215,0.0,-999.0,88,-99.99,,,0.16,weatherlink.com 1.10,2013-06-20 03:26:00,
2013-06-19 22:41:00,74.9,72.0,29.96,SW,215,0.0,-999.0,89,-99.99,,,0.16,weatherlink.com 1.10,2013-06-20 03:41:00,
2013-06-19 22:56:00,74.9,72.0,29.96,SW,215,0.0,-999.0,89,-99.99,,,0.16,weatherlink.com 1.10,2013-06-20 03:56:00,
2013-06-19 23:11:00,74.6,72.0,29.96,SW,215,0.0,-999.0,90,-99.99,,,0.16,weatherlink.com 1.10,2013-06-20 04:11:00,
2013-06-19 23:25:00,74.4,71.0,29.96,SW,215,0.0,-999.0,90,-99.99,,,0.16,weatherlink.com 1.10,2013-06-20 04:25:00,
2013-06-19 23:40:00,74.2,71.0,29.97,SW,215,0.0,-999.0,90,-99.99,,,0.16,weatherlink.com 1.10,2013-06-20 04:40:00,
2013-06-19 23:55:00,73.9,71.0,29.97,SW,215,0.0,-999.0,90,-99.99,,,0.16,weatherlink.com 1.10,2013-06-20 04:55:00,